Nearby METAR Reports

 

KSFB - Sanford/Orlando, Florida, USA
Distance from station: Ws 8mi, 12km
Aktualizacja: Tue 11/20/18 2:53am EST
Przeważnie pochmurno
Przeważnie pochmurno
 Wiatr z calm
Wiatr: Cisza
Temperatura: 68°F , 20°C
Punkt Rosy: 66°F , 19°C
Wilgotność: 94%
Ciśnienie: 30.06 inHg , 1017.9 hPa
Clouds: Przeważnie pochmurno
Visibility: 10 miles , 16 km
Cloud details: Częściowe zachmurzenie 4900 ft
Przeważnie pochmurno 8000 ft
2018/11/20 07:53 KSFB 200753Z AUTO 00000KT 10SM SCT049 BKN080 20/19 A3006 RMK AO2 SLP176 T02000189
KORL - Orlando, Florida, USA
Distance from station: Pd 15mi, 24km
Aktualizacja: Tue 11/20/18 2:53am EST
Przeważnie pochmurno
Przeważnie pochmurno
 Wiatr z calm
Wiatr: Cisza
Temperatura: 68°F , 20°C
Punkt Rosy: 66°F , 19°C
Wilgotność: 94%
Ciśnienie: 30.06 inHg , 1017.9 hPa
Clouds: Przeważnie pochmurno
Visibility: 10 miles , 16 km
Cloud details: Częściowe zachmurzenie 3900 ft
Przeważnie pochmurno 7000 ft
2018/11/20 07:53 KORL 200753Z AUTO 00000KT 10SM SCT039 BKN070 20/19 A3006 RMK AO2 SLP181 T02000189
 
KDED - Deland, Florida, USA
Distance from station: Pn 21mi, 34km
Aktualizacja: Tue 11/20/18 3:15am EST
Pochmurno
Pochmurno
 Wiatr z calm
Wiatr: Cisza
Temperatura: 64°F , 18°C
Punkt Rosy: 63°F , 17°C
Wilgotność: 94%
Ciśnienie: 30.05 inHg , 1017.6 hPa
Clouds: Pochmurno
Visibility: 10 miles , 16 km
Cloud details: Częściowe zachmurzenie 5000 ft
Pochmurno 7000 ft
2018/11/20 08:15 KDED 200815Z AUTO 00000KT 10SM SCT050 OVC070 18/17 A3005 RMK AO2
KMCO - Orlando, Florida, USA
Distance from station: Pd 24mi, 39km
Aktualizacja: Tue 11/20/18 2:53am EST
Przeważnie pochmurno
Przeważnie pochmurno
 Wiatr z PnPnZd
Wiatr: PnPnZd 5 mph , 7 km/h
Temperatura: 70°F , 21°C
Punkt Rosy: 66°F , 19°C
Wilgotność: 88%
Ciśnienie: 30.06 inHg , 1017.9 hPa
Clouds: Przeważnie pochmurno
Visibility: 10 miles , 16 km
Cloud details: Częściowe zachmurzenie 6000 ft
Przeważnie pochmurno 7500 ft
2018/11/20 07:53 KMCO 200753Z 34004KT 10SM SCT060 BKN075 21/19 A3006 RMK AO2 SLP177 T02060194
 
KLEE - Leesburg, Florida, USA
Distance from station: Zd 29mi, 47km
Aktualizacja: Tue 11/20/18 2:53am EST
Częściowe zachmurzenie
Częściowe zachmurzenie
 Wiatr z PnPnZd
Wiatr: PnPnZd 3 mph , 6 km/h
Temperatura: 64°F , 18°C
Punkt Rosy: 63°F , 17°C
Wilgotność: 94%
Ciśnienie: 30.06 inHg , 1017.9 hPa
Clouds: Częściowe zachmurzenie
Visibility: 9 miles , 14 km
Cloud details: Few Clouds 4200 ft
Częściowe zachmurzenie 6500 ft
2018/11/20 07:53 KLEE 200753Z AUTO 03003KT 9SM FEW042 SCT065 18/17 A3006 RMK AO2 SLP179 T01780172
KEVB - New Smyrna Beach, Florida, USA
Distance from station: PnWs 31mi, 49km
Aktualizacja: Mon 11/19/18 9:47pm EST
NOT Current
Częściowe zachmurzenie
Częściowe zachmurzenie
 Wiatr z PnWs
Wiatr: PnWs 6 mph , 9 km/h
Temperatura: 68°F , 20°C
Punkt Rosy: 64°F , 18°C
Wilgotność: 88%
Ciśnienie: 30.11 inHg , 1019.6 hPa
Clouds: Częściowe zachmurzenie
Visibility: 10 miles , 16 km
Cloud details: Częściowe zachmurzenie 5500 ft
2018/11/20 02:47 KEVB 200247Z 05005KT 10SM SCT055 20/18 A3011 RMK LAST
 
KDAB - Daytona Beach, Florida, USA
Distance from station: PnPnZd 33mi, 53km
Aktualizacja: Tue 11/20/18 2:53am EST
Przeważnie pochmurno
Przeważnie pochmurno
 Wiatr z calm
Wiatr: Cisza
Temperatura: 64°F , 18°C
Punkt Rosy: 64°F , 18°C
Wilgotność: 100%
Ciśnienie: 30.06 inHg , 1017.9 hPa
Clouds: Przeważnie pochmurno
Visibility: 9 miles , 14 km
Cloud details: Few Clouds 7500 ft
Częściowe zachmurzenie 14000 ft
Przeważnie pochmurno 20000 ft
2018/11/20 07:53 KDAB 200753Z 00000KT 9SM FEW075 SCT140 BKN200 18/18 A3006 RMK AO2 SLP177 T01780178
KISM - Kissimmee/Orland, Florida, USA
Distance from station: Pd 34mi, 55km
Aktualizacja: Tue 11/20/18 2:56am EST
Few Clouds
Few Clouds
 Wiatr z WsPnWs
Wiatr: WsPnWs 3 mph , 6 km/h
Temperatura: 70°F , 21°C
Punkt Rosy: 66°F , 19°C
Wilgotność: 88%
Ciśnienie: 30.06 inHg , 1017.9 hPa
Clouds: Few Clouds
Visibility: 10 miles , 16 km
Cloud details: Few Clouds 4000 ft
2018/11/20 07:56 KISM 200756Z AUTO 07003KT 10SM FEW040 21/19 A3006 RMK AO2 SLP182 T02060194 PNO $
 
KTIX - Titusville, Florida, USA
Distance from station: WsPdWs 38mi, 61km
Aktualizacja: Mon 11/19/18 8:47pm EST
NOT Current
Częściowe zachmurzenie
Częściowe zachmurzenie
 Wiatr z calm
Wiatr: Cisza
Temperatura: 73°F , 23°C
Punkt Rosy: 72°F , 22°C
Wilgotność: 94%
Ciśnienie: 30.10 inHg , 1019.3 hPa
Clouds: Częściowe zachmurzenie
Visibility: 7 miles , 11 km
Cloud details: Częściowe zachmurzenie 5000 ft
2018/11/20 01:47 KTIX 200147Z 00000KT 7SM SCT050 23/22 A3010 RMK LAST
KOMN - Ormond Beach Vor, Florida, USA
Distance from station: PnPnZd 39mi, 63km
Aktualizacja: Mon 11/19/18 6:50pm EST
NOT Current
Bezchmurnie
Bezchmurnie
 Wiatr z PnPnZd
Wiatr: PnPnZd 5 mph , 7 km/h
Temperatura: 66°F , 19°C
Punkt Rosy: 66°F , 19°C
Wilgotność: 100%
Ciśnienie: 30.08 inHg , 1018.6 hPa
Clouds: Bezchmurnie
Visibility: 10 miles , 16 km
2018/11/19 23:50 KOMN 192350Z 03004KT 10SM CLR 19/19 A3008 RMK LAST
 
KTTS - Nasa Shuttle Fcl, Florida, USA
Distance from station: WsPdWs 39mi, 63km
Aktualizacja: Tue 11/20/18 2:56am EST
Przeważnie pochmurno
Przeważnie pochmurno
 Wiatr z calm
Wiatr: Cisza
Temperatura: 66°F , 19°C
Punkt Rosy: 64°F , 18°C
Wilgotność: 94%
Ciśnienie: 30.05 inHg , 1017.6 hPa
Clouds: Przeważnie pochmurno
Visibility: 10 miles , 16 km
Cloud details: Przeważnie pochmurno 5500 ft
Przeważnie pochmurno 7500 ft
2018/11/20 07:56 KTTS 200756Z AUTO 00000KT 10SM BKN055 BKN075 19/18 A3005 RMK AO2 SLP180 T01920184
KVVG - The Villages, Florida, USA
Distance from station: ZdPnZd 40mi, 64km
Aktualizacja: Wed 02/14/18 2:10pm EST
NOT Current

 Wiatr z calm
Wiatr: Cisza
Temperatura: 73°F , 23°C
Punkt Rosy: 66°F , 19°C
Wilgotność: 78%
Ciśnienie: 30.29 inHg , 1025.7 hPa
Visibility: 10 miles , 16 km
2018/02/14 19:10 KVVG 141910Z AUTO 00000KT 10SM 23/19 A3029 RMK A01
 
KXMR - Cape Canaveral, Florida, USA
Distance from station: WsPdWs 51mi, 83km
Aktualizacja: Tue 11/20/18 2:56am EST
Pochmurno
Pochmurno
 Wiatr z calm
Wiatr: Cisza
Temperatura: 68°F , 20°C
Punkt Rosy: 66°F , 19°C
Wilgotność: 94%
Ciśnienie: 30.04 inHg , 1017.3 hPa
Clouds: Pochmurno
Visibility: 10 miles , 16 km
Cloud details: Przeważnie pochmurno 5000 ft
Pochmurno 7000 ft
2018/11/20 07:56 KXMR 200756Z AUTO 00000KT 10SM BKN050 OVC070 20/19 A3004 RMK AO2 SLP176 T01970189 $
KGIF - Winter Haven, Florida, USA
Distance from station: PdPdZd 55mi, 88km
Aktualizacja: Tue 11/20/18 2:53am EST
Pochmurno
Pochmurno
 Wiatr z WsPnWs
Wiatr: WsPnWs 6 mph , 9 km/h
Temperatura: 70°F , 21°C
Punkt Rosy: 68°F , 20°C
Wilgotność: 94%
Ciśnienie: 30.06 inHg , 1017.9 hPa
Clouds: Pochmurno
Visibility: 10 miles , 16 km
Cloud details: Przeważnie pochmurno 3600 ft
Pochmurno 6500 ft
2018/11/20 07:53 KGIF 200753Z AUTO 06005KT 10SM BKN036 OVC065 21/20 A3006 RMK AO2 SLP177 T02110200
 
KCOF - Patrick Afb/Coco, Florida, USA
Distance from station: PdWs 58mi, 94km
Aktualizacja: Tue 11/20/18 2:56am EST
Few Clouds
Few Clouds
 Wiatr z PnZd
Wiatr: PnZd 7 mph , 11 km/h
Temperatura: 72°F , 22°C
Punkt Rosy: 72°F , 22°C
Wilgotność: 100%
Ciśnienie: 30.05 inHg , 1017.6 hPa
Clouds: Few Clouds
Visibility: 10 miles , 16 km
Cloud details: Few Clouds 7000 ft
2018/11/20 07:56 KCOF 200756Z AUTO 32006KT 10SM FEW070 22/22 A3005 RMK AO2 SLP180 T02210221
KINF - Inverness, Florida, USA
Distance from station: Zd 59mi, 95km
Aktualizacja: Fri 09/21/18 11:35am EDT
NOT Current
Haze, Przeważnie pochmurno
Haze, Przeważnie pochmurno
 Wiatr z calm
Wiatr: Cisza
Temperatura: 88°F , 31°C
Heat Index: 100°F , 38°C
Punkt Rosy: 77°F , 25°C
Wilgotność: 70%
Ciśnienie: 30.11 inHg , 1019.6 hPa
Podsumowanie: Haze
Clouds: Przeważnie pochmurno
Visibility: 5 miles , 8 km
Cloud details: Przeważnie pochmurno 2700 ft
Przeważnie pochmurno 3700 ft
Przeważnie pochmurno 5000 ft
2018/09/21 15:35 KINF 211535Z AUTO 00000KT 5SM HZ BKN027 BKN037 BKN050 31/25 A3011 RMK AO2
 
KOCF - Ocala Muni, Florida, USA
Distance from station: ZdPnZd 60mi, 96km
Aktualizacja: Tue 11/20/18 2:51am EST
Bezchmurnie
Bezchmurnie
 Wiatr z calm
Wiatr: Cisza
Temperatura: 63°F , 17°C
Punkt Rosy: 63°F , 17°C
Wilgotność: 100%
Ciśnienie: 30.07 inHg , 1018.3 hPa
Clouds: Bezchmurnie
Visibility: 9 miles , 14 km
2018/11/20 07:51 KOCF 200751Z AUTO 00000KT 9SM CLR 17/17 A3007 RMK AO2 SLP184 T01720167
KZPH - Zephyrhills, Florida, USA
Distance from station: PdZd 61mi, 99km
Aktualizacja: Tue 11/20/18 3:35am EST
Mist, Bezchmurnie
Mist, Bezchmurnie
 Wiatr z calm
Wiatr: Cisza
Temperatura: 66°F , 19°C
Punkt Rosy: 64°F , 18°C
Wilgotność: 94%
Ciśnienie: 30.06 inHg , 1017.9 hPa
Podsumowanie: Mist
Clouds: Bezchmurnie
Visibility: 4 miles , 6 km
2018/11/20 08:35 KZPH 200835Z AUTO 00000KT 4SM BR CLR 19/18 A3006 RMK AO2 T01860184
 
KMLB - Melbourne, Florida, USA
Distance from station: PdWs 62mi, 100km
Aktualizacja: Tue 11/20/18 2:53am EST
Pochmurno
Pochmurno
 Wiatr z PnZd
Wiatr: PnZd 3 mph , 6 km/h
Temperatura: 70°F , 21°C
Punkt Rosy: 68°F , 20°C
Wilgotność: 94%
Ciśnienie: 30.05 inHg , 1017.6 hPa
Clouds: Pochmurno
Visibility: 10 miles , 16 km
Cloud details: Przeważnie pochmurno 6000 ft
Pochmurno 7500 ft
2018/11/20 07:53 KMLB 200753Z AUTO 32003KT 10SM BKN060 OVC075 21/20 A3005 RMK AO2 SLP174 T02110200
KBOW - Bartow Municipal, Florida, USA
Distance from station: PdPdZd 63mi, 102km
Aktualizacja: Tue 11/20/18 3:15am EST
Pochmurno
Pochmurno
 Wiatr z PnWs
Wiatr: PnWs 3 mph , 6 km/h
Temperatura: 68°F , 20°C
Ciśnienie: 30.04 inHg , 1017.3 hPa
Clouds: Pochmurno
Visibility: 10 miles , 16 km
Cloud details: Przeważnie pochmurno 3700 ft
Przeważnie pochmurno 4800 ft
Pochmurno 7000 ft
2018/11/20 08:15 KBOW 200815Z AUTO 04003KT 10SM BKN037 BKN048 OVC070 20/ A3004 RMK AO2